Time;durP1;ratioP1;P1;durP2;ratioP2;P2;SDS_P1;SDS_P2;PMS_P1;PMS_P2;Temp;Humidity;BMP_temperature;BMP_pressure;BME280_temperature;BME280_humidity;BME280_pressure;Samples;Min_cycle;Max_cycle;Signal;HPM_P1;HPM_P2
2022/12/04 00:01:50;;;;;;;;;34.25;28.25;;;;;4.93;66.15;101033.25;5925095;24;46492;-81
2022/12/04 00:05:09;;;;;;;;;;;;;;;;;;;;;
2022/12/04 00:08:37;;;;;;;;;;;;;;;;;;;;;
2022/12/04 00:15:47;;;;;;;;;;;;;;;;;;;;;
2022/12/04 00:19:43;;;;;;;;;;;;;;;;;;;;;
2022/12/04 00:29:59;;;;;;;;;;;;;;;;;;;;;
2022/12/04 00:43:58;;;;;;;;;28.25;25.75;;;;;4.66;66.44;100996.97;5880440;24;45472;-81
2022/12/04 00:50:32;;;;;;;;;;;;;;;;;;;;;
2022/12/04 00:53:21;;;;;;;;;25.25;23.00;;;;;4.81;66.33;101026.03;5912406;23;73294;-80
2022/12/04 00:56:03;;;;;;;;;31.50;26.00;;;;;4.60;66.36;100981.19;6058633;23;46778;-82
2022/12/04 00:58:43;;;;;;;;;28.00;23.50;;;;;4.74;66.31;100997.16;6095011;23;45317;-80
2022/12/04 01:01:43;;;;;;;;;30.75;26.50;;;;;4.76;66.42;101003.31;6251302;22;45173;-81
2022/12/04 01:05:10;;;;;;;;;;;;;;;;;;;;;
2022/12/04 01:08:53;;;;;;;;;22.25;19.50;;;;;4.68;66.16;100986.56;6274626;22;74388;-85
2022/12/04 01:11:49;;;;;;;;;30.00;25.75;;;;;4.63;66.29;100981.25;6161799;22;45667;-85
2022/12/04 01:14:31;;;;;;;;;37.25;30.50;;;;;4.57;66.28;100986.28;6248903;22;45648;-84
2022/12/04 01:17:17;;;;;;;;;24.50;22.25;;;;;4.59;66.00;100974.19;6252528;22;45477;-86
2022/12/04 01:20:10;;;;;;;;;26.75;23.75;;;;;4.64;66.01;100991.69;6248230;22;45390;-86
2022/12/04 01:23:03;;;;;;;;;35.50;32.25;;;;;4.77;66.27;101011.13;6250922;22;45199;-85
2022/12/04 01:25:48;;;;;;;;;31.00;23.75;;;;;4.71;66.38;100992.75;6251092;22;45255;-85
2022/12/04 01:28:43;;;;;;;;;;;;;;;;;;;;;
2022/12/04 01:37:38;;;;;;;;;30.25;26.75;;;;;4.56;66.09;100974.13;6258747;22;45341;-86
2022/12/04 01:40:14;;;;;;;;;25.50;22.75;;;;;4.54;66.38;100973.19;6250030;22;45338;-86
2022/12/04 01:43:31;;;;;;;;;;;;;;;;;;;;;
2022/12/04 01:52:20;;;;;;;;;;;;;;;;;;;;;
2022/12/04 01:55:15;;;;;;;;;32.25;25.50;;;;;4.65;66.58;100995.19;6278147;22;75442;-86
2022/12/04 01:58:05;;;;;;;;;;;;;;;;;;;;;
2022/12/04 02:04:05;;;;;;;;;;;;;;;;;;;;;
2022/12/04 02:06:37;;;;;;;;;33.50;26.25;;;;;4.55;66.48;100977.59;6276982;22;74581;-86
2022/12/04 02:09:54;;;;;;;;;;;;;;;;;;;;;
2022/12/04 02:12:55;;;;;;;;;39.00;26.50;;;;;4.54;66.74;100979.28;6278013;22;67088;-85
2022/12/04 02:15:51;;;;;;;;;27.75;25.00;;;;;4.55;66.06;100977.59;6248755;22;45838;-85
2022/12/04 02:18:43;;;;;;;;;;;;;;;;;;;;;
2022/12/04 02:21:55;;;;;;;;;;;;;;;;;;;;;
2022/12/04 02:25:05;;;;;;;;;36.25;29.25;;;;;4.70;66.42;101005.75;6277069;22;68283;-86
2022/12/04 02:31:51;;;;;;;;;;;;;;;;;;;;;
2022/12/04 02:34:40;;;;;;;;;31.75;25.75;;;;;4.46;66.27;100983.44;6275152;22;73194;-85
2022/12/04 02:37:48;;;;;;;;;31.75;30.50;;;;;4.43;66.71;100992.03;6251277;22;45395;-85
2022/12/04 02:40:48;;;;;;;;;34.50;27.75;;;;;4.38;66.58;100985.88;6250502;22;45122;-85
2022/12/04 02:43:53;;;;;;;;;;;;;;;;;;;;;
2022/12/04 02:47:27;;;;;;;;;;;;;;;;;;;;;
2022/12/04 02:50:36;;;;;;;;;36.50;25.00;;;;;4.59;66.92;100995.91;6152921;23;67089;-85
2022/12/04 02:53:42;;;;;;;;;29.00;28.00;;;;;4.46;66.97;100966.91;6251774;22;45462;-85
2022/12/04 02:56:56;;;;;;;;;;;;;;;;;;;;;
2022/12/04 02:59:47;;;;;;;;;;;;;;;;;;;;;
2022/12/04 03:02:33;;;;;;;;;25.50;24.50;;;;;4.67;66.54;101000.44;6278592;22;69116;-84
2022/12/04 03:05:39;;;;;;;;;29.25;25.25;;;;;4.54;66.74;100986.22;6251862;22;45435;-85
2022/12/04 03:08:52;;;;;;;;;;;;;;;;;;;;;
2022/12/04 03:15:31;;;;;;;;;37.25;30.00;;;;;4.70;66.94;100998.78;6156126;23;45466;-85
2022/12/04 03:18:36;;;;;;;;;37.50;31.50;;;;;4.64;66.73;100990.81;6153393;23;45296;-86
2022/12/04 03:21:54;;;;;;;;;;;;;;;;;;;;;
2022/12/04 03:25:27;;;;;;;;;36.50;29.50;;;;;4.62;67.22;100984.69;6200921;22;45416;-86
2022/12/04 03:35:43;;;;;;;;;33.25;26.50;;;;;4.73;67.17;100983.25;6094872;23;45272;-85
2022/12/04 03:38:37;;;;;;;;;37.00;31.50;;;;;4.68;66.75;100974.44;6199504;22;45393;-86
2022/12/04 03:41:57;;;;;;;;;;;;;;;;;;;;;
2022/12/04 03:45:16;;;;;;;;;36.50;31.75;;;;;4.77;67.01;100973.75;6279468;22;71967;-85
2022/12/04 03:48:58;;;;;;;;;;;;;;;;;;;;;
2022/12/04 03:52:08;;;;;;;;;32.75;24.25;;;;;4.57;66.71;100935.06;6154539;23;72693;-85
2022/12/04 03:55:18;;;;;;;;;;;;;;;;;;;;;
2022/12/04 04:00:51;;;;;;;;;28.75;26.75;;;;;4.61;66.84;100929.06;6264603;22;45510;-85
2022/12/04 04:03:36;;;;;;;;;36.50;30.50;;;;;4.60;66.87;100929.03;6252061;22;45401;-85
2022/12/04 04:06:46;;;;;;;;;32.00;26.75;;;;;4.60;66.78;100914.28;6253104;22;45387;-84
2022/12/04 04:09:48;;;;;;;;;38.50;32.00;;;;;4.79;66.91;100930.34;6251720;22;45181;-85
2022/12/04 04:28:52;;;;;;;;;;;;;;;;;;;;;
2022/12/04 04:31:52;;;;;;;;;38.75;32.00;;;;;4.84;67.02;100887.88;6279005;22;68385;-84
2022/12/04 04:34:53;;;;;;;;;43.50;32.75;;;;;4.84;66.79;100890.47;6204563;22;45440;-85
2022/12/04 04:38:11;;;;;;;;;43.25;33.00;;;;;4.80;66.98;100891.22;6248586;22;46785;-85
2022/12/04 04:41:39;;;;;;;;;;;;;;;;;;;;;
2022/12/04 04:44:52;;;;;;;;;35.25;34.75;;;;;4.74;66.76;100891.09;6236426;22;68035;-85
2022/12/04 04:51:05;;;;;;;;;35.25;32.50;;;;;4.80;66.87;100888.63;6215159;22;46258;-85
2022/12/04 04:54:23;;;;;;;;;30.50;26.50;;;;;4.83;66.47;100893.91;6252030;22;45382;-85
2022/12/04 04:57:54;;;;;;;;;41.00;35.75;;;;;4.73;66.86;100868.50;6249713;22;45254;-85
2022/12/04 05:01:10;;;;;;;;;51.75;41.50;;;;;4.81;66.87;100877.38;6277792;22;45346;-85
2022/12/04 05:03:40;;;;;;;;;37.50;29.25;;;;;4.85;66.56;100888.75;6252986;22;47184;-84
2022/12/04 05:06:07;;;;;;;;;37.75;34.25;;;;;4.99;66.46;100918.59;6279415;22;45428;-86
2022/12/04 05:08:34;;;;;;;;;37.00;30.50;;;;;4.99;66.45;100917.72;6253795;22;45387;-85
2022/12/04 05:10:59;;;;;;;;;48.00;37.75;;;;;4.80;66.57;100882.53;6251430;22;45544;-85
2022/12/04 05:13:27;;;;;;;;;35.50;29.00;;;;;4.83;66.72;100885.22;6280934;22;45245;-85
2022/12/04 05:16:04;;;;;;;;;36.25;31.75;;;;;4.98;66.61;100927.28;6279754;22;45153;-85
2022/12/04 05:22:17;;;;;;;;;35.00;32.50;;;;;4.77;66.47;100893.78;6155372;23;45254;-85
2022/12/04 05:25:29;;;;;;;;;;;;;;;;;;;;;
2022/12/04 05:28:46;;;;;;;;;;;;;;;;;;;;;
2022/12/04 05:31:15;;;;;;;;;32.50;31.50;;;;;4.88;66.59;100901.84;6277876;22;67694;-86
2022/12/04 05:33:40;;;;;;;;;37.75;30.75;;;;;4.80;66.55;100898.19;6279231;22;45471;-85
2022/12/04 05:36:12;;;;;;;;;36.00;30.75;;;;;4.95;66.86;100919.41;6252923;22;48352;-85
2022/12/04 05:38:37;;;;;;;;;38.75;33.50;;;;;4.94;66.99;100921.97;6279563;22;45381;-85
2022/12/04 05:41:05;;;;;;;;;44.50;32.75;;;;;4.86;66.77;100906.13;6253013;22;45339;-84
2022/12/04 05:43:31;;;;;;;;;38.75;33.25;;;;;5.01;66.84;100935.19;6279338;22;45276;-85
2022/12/04 05:46:02;;;;;;;;;38.75;33.25;;;;;5.01;66.65;100935.19;6253246;22;46892;-85
2022/12/04 05:52:09;;;;;;;;;;;;;;;;;;;;;
2022/12/04 05:55:11;;;;;;;;;;;;;;;;;;;;;
2022/12/04 05:58:26;;;;;;;;;39.50;32.75;;;;;5.01;66.81;100958.66;6277149;22;75173;-84
2022/12/04 06:01:06;;;;;;;;;35.25;29.75;;;;;5.03;67.19;100950.88;6252498;22;45267;-85
2022/12/04 06:07:08;;;;;;;;;38.25;32.75;;;;;4.92;66.54;100931.47;6230929;22;45618;-84
2022/12/04 06:13:07;;;;;;;;;;;;;;;;;;;;;
2022/12/04 06:16:02;;;;;;;;;;;;;;;;;;;;;
2022/12/04 06:22:33;;;;;;;;;36.75;32.75;;;;;5.05;66.55;100970.94;6278365;22;45770;-85
2022/12/04 06:25:30;;;;;;;;;35.50;33.75;;;;;5.03;66.65;100959.59;6253448;22;45665;-85
2022/12/04 06:31:30;;;;;;;;;37.00;32.25;;;;;5.07;66.55;100964.00;6278597;22;45594;-85
2022/12/04 06:34:16;;;;;;;;;;;;;;;;;;;;;
2022/12/04 06:37:26;;;;;;;;;35.75;31.50;;;;;5.09;66.76;100943.19;6277699;22;72557;-85
2022/12/04 06:40:17;;;;;;;;;;;;;;;;;;;;;
2022/12/04 06:43:06;;;;;;;;;37.00;32.75;;;;;5.08;66.67;100947.53;6279356;22;72819;-84
2022/12/04 06:45:41;;;;;;;;;51.00;37.25;;;;;4.94;66.12;100925.44;6250603;22;45430;-84
2022/12/04 06:48:28;;;;;;;;;39.00;31.25;;;;;5.12;66.44;100958.03;6251727;22;45212;-85
2022/12/04 06:51:17;;;;;;;;;44.00;36.25;;;;;5.13;66.58;100965.88;6251191;22;45327;-85
2022/12/04 06:54:13;;;;;;;;;;;;;;;;;;;;;
2022/12/04 06:56:57;;;;;;;;;;;;;;;;;;;;;
2022/12/04 06:59:34;;;;;;;;;35.25;29.50;;;;;5.10;66.46;100976.25;6277840;22;73244;-85
2022/12/04 09:16:46;;;;;;;;;53.50;42.25;;;;;5.50;66.02;100996.25;6346300;22;45135;-94
2022/12/04 09:18:53;;;;;;;;;47.50;39.00;;;;;5.52;66.07;100986.72;6325445;22;45394;-89
2022/12/04 09:21:21;;;;;;;;;46.00;34.25;;;;;5.51;65.85;100989.31;6315353;22;46883;-89
2022/12/04 09:23:58;;;;;;;;;50.50;40.00;;;;;5.39;65.85;100966.44;6314770;22;45381;-90
2022/12/04 09:26:25;;;;;;;;;54.00;40.75;;;;;5.37;66.02;100959.41;6345185;22;45297;-90
2022/12/04 09:29:20;;;;;;;;;45.00;37.50;;;;;5.60;65.86;100991.22;6316349;22;45249;-91
2022/12/04 09:31:45;;;;;;;;;52.75;38.75;;;;;5.53;65.77;100971.94;6216846;22;45367;-87
2022/12/04 09:42:16;;;;;;;;;;;;;;;;;;;;;
2022/12/04 10:36:06;;;;;;;;;46.50;39.00;;;;;6.06;64.63;100948.59;6347426;22;44892;-89
2022/12/04 12:03:11;;;;;;;;;47.50;36.75;;;;;7.01;63.81;100930.94;6195695;22;46156;-85
2022/12/04 12:06:47;;;;;;;;;53.75;41.25;;;;;6.87;63.75;100898.44;6280049;22;45256;-84
2022/12/04 12:10:06;;;;;;;;;50.25;39.00;;;;;7.03;63.60;100917.00;6283204;22;45422;-83
2022/12/04 12:12:50;;;;;;;;;62.50;47.50;;;;;7.03;63.60;100922.25;6279385;22;45610;-82
2022/12/04 12:15:58;;;;;;;;;52.25;42.50;;;;;7.05;63.45;100919.63;6280538;22;47836;-84
2022/12/04 12:18:53;;;;;;;;;48.00;39.75;;;;;6.88;63.68;100877.53;6308689;22;45385;-84
2022/12/04 12:21:59;;;;;;;;;;;;;;;;;;;;;
2022/12/04 12:25:03;;;;;;;;;;;;;;;;;;;;;
2022/12/04 12:27:47;;;;;;;;;53.50;41.00;;;;;7.10;63.35;100904.00;6304020;22;75824;-84
2022/12/04 12:30:18;;;;;;;;;48.00;40.25;;;;;7.05;63.27;100915.28;6280174;22;45722;-82
2022/12/04 12:32:54;;;;;;;;;51.50;39.25;;;;;7.00;63.31;100909.13;6281651;22;45261;-83
2022/12/04 12:35:38;;;;;;;;;53.00;40.25;;;;;7.00;63.64;100909.13;6280690;22;45938;-83
2022/12/04 12:38:43;;;;;;;;;;;;;;;;;;;;;
2022/12/04 12:41:29;;;;;;;;;;;;;;;;;;;;;
2022/12/04 12:44:16;;;;;;;;;58.50;44.50;;;;;6.95;63.58;100907.28;6308138;22;66922;-83
2022/12/04 12:47:25;;;;;;;;;;;;;;;;;;;;;
2022/12/04 12:50:31;;;;;;;;;48.50;39.75;;;;;6.97;63.66;100918.66;6296642;22;45580;-84
2022/12/04 12:54:02;;;;;;;;;;;;;;;;;;;;;
2022/12/04 12:56:58;;;;;;;;;53.25;39.25;;;;;6.77;63.68;100894.84;6305095;22;69045;-83
2022/12/04 12:59:45;;;;;;;;;;;;;;;;;;;;;
2022/12/04 13:03:25;;;;;;;;;;;;;;;;;;;;;
2022/12/04 13:06:21;;;;;;;;;;;;;;;;;;;;;
2022/12/04 13:09:11;;;;;;;;;54.00;43.75;;;;;6.82;63.88;100921.94;6179774;22;68852;-82
2022/12/04 13:11:38;;;;;;;;;49.50;39.50;;;;;6.81;64.22;100925.41;6217830;22;45585;-80
2022/12/04 13:14:19;;;;;;;;;54.25;40.50;;;;;6.76;64.29;100922.75;6215786;22;47094;-83
2022/12/04 13:16:53;;;;;;;;;54.50;42.25;;;;;6.63;64.19;100898.13;6246048;22;45387;-81
2022/12/04 13:19:27;;;;;;;;;55.75;42.50;;;;;6.77;64.57;100921.00;6245130;22;45445;-81
2022/12/04 13:22:18;;;;;;;;;47.50;40.75;;;;;6.75;64.56;100920.09;6218054;22;45551;-81
2022/12/04 13:25:13;;;;;;;;;54.75;41.75;;;;;6.59;64.42;100898.06;6245978;22;45340;-81
2022/12/04 13:28:10;;;;;;;;;46.00;39.00;;;;;6.71;64.60;100926.13;6244566;22;45405;-80
2022/12/04 13:31:03;;;;;;;;;55.25;43.75;;;;;6.61;64.61;100891.13;6244378;22;45456;-82
2022/12/04 13:33:56;;;;;;;;;52.25;41.25;;;;;6.72;64.68;100909.59;6218133;22;45631;-81
2022/12/04 13:36:39;;;;;;;;;45.75;40.00;;;;;6.68;64.67;100890.31;6244408;22;47304;-81
2022/12/04 13:39:19;;;;;;;;;47.50;40.00;;;;;6.77;64.72;100907.91;6242990;22;45693;-83
2022/12/04 13:42:04;;;;;;;;;53.75;40.25;;;;;6.73;64.72;100899.13;6243588;22;45217;-82
2022/12/04 13:44:34;;;;;;;;;46.25;38.50;;;;;6.89;64.50;100921.16;6246494;22;45309;-82
2022/12/04 13:47:03;;;;;;;;;54.75;41.00;;;;;6.70;64.28;100878.16;6243414;22;46714;-82
2022/12/04 13:49:44;;;;;;;;;44.75;35.50;;;;;6.85;64.36;100904.53;6247816;22;45387;-83
2022/12/04 13:52:37;;;;;;;;;47.50;39.00;;;;;6.90;64.33;100909.84;6216873;22;45391;-84
2022/12/04 13:55:22;;;;;;;;;54.00;40.25;;;;;6.99;64.34;100896.88;6218361;22;45237;-84
2022/12/04 13:58:13;;;;;;;;;56.25;43.25;;;;;7.10;64.10;100922.31;6217226;22;48137;-83
2022/12/04 14:01:22;;;;;;;;;62.25;45.75;;;;;7.10;64.17;100924.94;6243408;22;45170;-84
2022/12/04 14:08:06;;;;;;;;;57.75;43.00;;;;;7.16;64.06;100922.41;6061511;23;46738;-83
2022/12/04 14:10:35;;;;;;;;;60.75;45.00;;;;;7.14;64.07;100925.00;5980567;23;47037;-82
2022/12/04 14:13:15;;;;;;;;;59.75;44.00;;;;;7.14;64.10;100927.63;6083208;23;45236;-82
2022/12/04 14:15:41;;;;;;;;;54.50;42.25;;;;;7.09;63.86;100908.38;6195237;22;45411;-82
2022/12/04 14:18:12;;;;;;;;;57.25;42.75;;;;;7.18;63.81;100920.69;6219752;22;45371;-82
2022/12/04 14:20:40;;;;;;;;;47.25;38.75;;;;;7.16;63.67;100922.41;6244486;22;46106;-82
2022/12/04 14:23:25;;;;;;;;;56.25;42.50;;;;;7.12;63.77;100929.34;6244697;22;45363;-82
2022/12/04 14:25:58;;;;;;;;;56.75;42.00;;;;;7.03;63.40;100918.72;6217563;22;45479;-82
2022/12/04 14:28:41;;;;;;;;;52.50;43.00;;;;;7.09;63.70;100946.75;6218075;22;45878;-83
2022/12/04 14:31:32;;;;;;;;;46.75;39.50;;;;;7.07;63.80;100938.88;6217510;22;47836;-84
2022/12/04 14:34:03;;;;;;;;;55.00;42.50;;;;;6.91;63.90;100915.97;6217977;22;45749;-83
2022/12/04 14:36:36;;;;;;;;;53.25;43.50;;;;;6.92;63.75;100917.72;6218930;22;45804;-84
2022/12/04 14:39:12;;;;;;;;;54.50;43.75;;;;;7.07;63.86;100944.97;6244027;22;45304;-83
2022/12/04 14:41:38;;;;;;;;;53.50;42.00;;;;;6.85;63.79;100906.28;6249020;22;45630;-84
2022/12/04 14:44:04;;;;;;;;;98.25;83.50;;;;;6.99;63.94;100935.28;6218494;22;45703;-83
2022/12/04 14:46:43;;;;;;;;;57.75;44.25;;;;;6.93;63.93;100937.81;6220222;22;45435;-83
2022/12/04 14:49:26;;;;;;;;;57.75;44.50;;;;;6.97;64.13;100944.81;6219295;22;45507;-82
2022/12/04 14:52:16;;;;;;;;;50.75;41.25;;;;;6.93;63.90;100948.28;6247110;22;47237;-83
2022/12/04 14:55:08;;;;;;;;;50.75;40.00;;;;;6.77;64.09;100932.34;6245590;22;45344;-85
2022/12/04 14:58:30;;;;;;;;;52.00;41.25;;;;;6.85;64.26;100954.28;6220306;22;45333;-83
2022/12/04 15:04:31;;;;;;;;;53.00;42.75;;;;;6.77;64.24;100961.13;6273825;22;46226;-83
2022/12/04 15:07:10;;;;;;;;;44.75;36.50;;;;;6.63;64.39;100937.38;6282053;22;45417;-83
2022/12/04 15:12:46;;;;;;;;;54.75;42.00;;;;;6.67;64.52;100951.38;6309884;22;45291;-83
2022/12/04 15:15:27;;;;;;;;;56.50;41.50;;;;;6.53;64.31;100927.63;6280151;22;47726;-84
2022/12/04 15:18:13;;;;;;;;;56.50;40.50;;;;;6.73;64.64;100963.66;6280219;22;45315;-85
2022/12/04 15:21:26;;;;;;;;;;;;;;;;;;;;;
2022/12/04 15:23:55;;;;;;;;;56.50;43.75;;;;;6.50;64.43;100937.16;6307756;22;71444;-81
2022/12/04 15:26:31;;;;;;;;;55.00;43.75;;;;;6.53;64.48;100945.94;6280323;22;47817;-80
2022/12/04 15:29:29;;;;;;;;;55.00;43.00;;;;;6.71;64.33;100983.69;6278209;22;45331;-80
2022/12/04 15:32:05;;;;;;;;;55.00;42.50;;;;;6.49;64.36;100945.84;6265615;22;45455;-80
2022/12/04 15:34:59;;;;;;;;;73.00;54.75;;;;;6.57;64.48;100966.03;6280149;22;45290;-81
2022/12/04 15:37:35;;;;;;;;;53.75;41.50;;;;;6.51;64.62;100967.69;6270215;22;45930;-80
2022/12/04 15:40:32;;;;;;;;;54.25;43.00;;;;;6.66;64.87;100988.88;6308398;22;45694;-80
2022/12/04 15:46:41;;;;;;;;;51.75;41.25;;;;;6.60;64.55;101005.34;6305825;22;45814;-80
2022/12/04 15:49:27;;;;;;;;;56.25;40.00;;;;;6.51;64.75;101009.53;6280143;22;46339;-81
2022/12/04 15:52:23;;;;;;;;;39.75;34.25;;;;;6.47;64.90;101005.06;6278590;22;45505;-80
2022/12/04 15:55:12;;;;;;;;;55.25;41.75;;;;;6.49;64.98;101022.56;6266743;22;45458;-81
2022/12/04 15:58:38;;;;;;;;;;;;;;;;;;;;;
2022/12/04 16:01:20;;;;;;;;;59.50;47.75;;;;;6.27;64.96;100983.84;6296541;22;45664;-81
2022/12/04 16:04:13;;;;;;;;;57.25;43.75;;;;;6.26;65.17;100992.53;6289582;22;45405;-80
2022/12/04 16:07:09;;;;;;;;;36.50;27.00;;;;;6.39;65.15;101023.28;6306129;22;45631;-81
2022/12/04 16:10:05;;;;;;;;;54.00;44.75;;;;;6.14;65.02;100973.13;6300751;22;45637;-80
2022/12/04 16:12:58;;;;;;;;;50.75;40.50;;;;;6.12;65.24;100984.41;6276800;22;46255;-81
2022/12/04 16:15:39;;;;;;;;;57.00;44.00;;;;;6.11;65.21;100990.50;6279280;22;45569;-80
2022/12/04 16:18:17;;;;;;;;;65.75;50.00;;;;;6.09;65.46;100986.97;6281898;22;45411;-80
2022/12/04 16:20:46;;;;;;;;;59.50;42.25;;;;;6.08;65.40;100993.06;6307429;22;45322;-80
2022/12/04 16:23:34;;;;;;;;;;;;;;;;;;;;;
2022/12/04 16:26:07;;;;;;;;;59.75;44.25;;;;;6.15;65.50;100997.56;6304825;22;72971;-80
2022/12/04 16:28:35;;;;;;;;;56.00;43.75;;;;;6.22;65.79;101003.78;6280150;22;45527;-80
2022/12/04 16:31:12;;;;;;;;;55.00;42.50;;;;;6.22;65.72;101001.16;6279981;22;45277;-79
2022/12/04 16:34:00;;;;;;;;;;;;;;;;;;;;;
2022/12/04 16:36:52;;;;;;;;;59.25;46.00;;;;;6.16;65.77;100992.34;6305681;22;71871;-79
2022/12/04 16:39:26;;;;;;;;;60.25;43.50;;;;;6.36;65.52;101031.03;6278907;22;45350;-80
2022/12/04 16:42:07;;;;;;;;;48.00;41.75;;;;;6.34;65.49;101031.03;6280118;22;45295;-80
2022/12/04 16:47:51;;;;;;;;;;;;;;;;;;;;;
2022/12/04 16:50:26;;;;;;;;;53.00;40.00;;;;;6.17;65.68;101004.59;6305412;22;70525;-79
2022/12/04 16:53:10;;;;;;;;;;;;;;;;;;;;;
2022/12/04 16:55:48;;;;;;;;;48.50;40.50;;;;;6.33;65.62;101024.03;6306224;22;75124;-82
2022/12/04 16:58:14;;;;;;;;;54.00;41.00;;;;;6.16;65.23;100992.34;6279484;22;45252;-79
2022/12/04 17:00:43;;;;;;;;;52.75;41.75;;;;;6.30;65.59;101028.31;6279258;22;45461;-80
2022/12/04 17:03:20;;;;;;;;;55.50;46.75;;;;;6.17;65.50;101007.22;6276851;22;45304;-80
2022/12/04 17:05:59;;;;;;;;;;;;;;;;;;;;;
2022/12/04 17:08:30;;;;;;;;;49.25;41.50;;;;;6.27;65.52;101028.28;6306015;22;73153;-80
2022/12/04 17:11:02;;;;;;;;;52.50;38.50;;;;;6.16;65.46;101015.00;6282951;22;45307;-81
2022/12/04 17:13:44;;;;;;;;;44.00;37.00;;;;;6.21;65.42;101026.44;6283185;22;45409;-80
2022/12/04 17:16:13;;;;;;;;;51.00;40.25;;;;;6.18;65.44;101044.69;6280870;22;45744;-81
2022/12/04 17:18:41;;;;;;;;;56.75;42.75;;;;;6.05;65.36;101027.88;6281364;22;45586;-80
2022/12/04 17:21:13;;;;;;;;;53.25;37.50;;;;;6.05;65.56;101020.03;6283946;22;45319;-80
2022/12/04 17:23:54;;;;;;;;;57.25;45.00;;;;;6.04;65.46;101026.13;6280269;22;45393;-81
2022/12/04 17:26:22;;;;;;;;;54.75;41.50;;;;;6.03;65.41;101032.19;6279643;22;47129;-81
2022/12/04 17:28:51;;;;;;;;;47.75;39.25;;;;;6.16;65.62;101051.59;6309584;22;45335;-81
2022/12/04 17:31:24;;;;;;;;;54.75;43.50;;;;;6.17;65.44;101064.72;6279558;22;44735;-80
2022/12/04 17:34:04;;;;;;;;;54.75;43.25;;;;;6.03;65.41;101037.41;6308241;22;45300;-81
2022/12/04 17:36:52;;;;;;;;;45.50;37.00;;;;;6.07;65.53;101044.47;6279273;22;45436;-80
2022/12/04 17:39:20;;;;;;;;;50.50;39.50;;;;;6.16;65.33;101072.50;6278917;22;45393;-79
2022/12/04 17:41:54;;;;;;;;;50.75;39.00;;;;;6.06;65.43;101058.38;6279298;22;45329;-79
2022/12/04 17:44:25;;;;;;;;;44.50;40.00;;;;;6.00;65.29;101050.41;6278859;22;45730;-80
2022/12/04 17:49:41;;;;;;;;;54.50;41.25;;;;;6.10;65.36;101073.28;6306399;22;45306;-79
2022/12/04 17:52:25;;;;;;;;;;;;;;;;;;;;;
2022/12/04 17:55:16;;;;;;;;;49.75;40.75;;;;;6.06;65.41;101062.72;6306226;22;72743;-84
2022/12/04 18:01:20;;;;;;;;;56.00;47.25;;;;;6.12;65.58;101081.13;6175826;22;45501;-81
2022/12/04 18:03:54;;;;;;;;;47.25;39.00;;;;;6.07;65.40;101074.97;6305777;22;45327;-80
2022/12/04 18:06:23;;;;;;;;;43.00;37.25;;;;;6.04;65.46;101069.66;6279606;22;45318;-81
2022/12/04 18:08:50;;;;;;;;;49.00;41.00;;;;;6.09;65.33;101076.72;6307460;22;46292;-81
2022/12/04 18:11:39;;;;;;;;;;;;;;;;;;;;;
2022/12/04 18:14:14;;;;;;;;;46.00;39.50;;;;;5.97;65.56;101060.81;6307808;22;68015;-82
2022/12/04 18:16:52;;;;;;;;;39.25;33.00;;;;;6.17;65.74;101103.94;6283546;22;45446;-82
2022/12/04 18:20:09;;;;;;;;;49.00;39.75;;;;;6.00;65.19;101073.06;6268851;22;46951;-82
2022/12/04 18:22:34;;;;;;;;;50.50;38.00;;;;;6.10;65.55;101088.09;6312185;22;44675;-79
2022/12/04 18:25:00;;;;;;;;;55.75;43.75;;;;;6.05;65.44;101087.09;6290672;22;45329;-78
2022/12/04 18:27:25;;;;;;;;;56.00;43.00;;;;;6.06;65.34;101087.13;6288658;22;45418;-78
2022/12/04 18:29:50;;;;;;;;;43.50;37.50;;;;;6.08;65.67;101108.94;6310433;22;47502;-79
2022/12/04 18:37:45;;;;;;;;;49.00;39.25;;;;;5.93;65.48;101083.41;6257096;22;45450;-84
2022/12/04 18:40:14;;;;;;;;;50.00;40.75;;;;;6.08;65.45;101110.69;6210566;22;47342;-85
2022/12/04 18:42:40;;;;;;;;;49.25;40.25;;;;;6.07;65.43;101112.44;6207507;22;45136;-86
2022/12/04 18:45:09;;;;;;;;;43.25;38.50;;;;;5.90;65.33;101085.00;6251538;22;45332;-84
2022/12/04 18:47:37;;;;;;;;;61.00;44.50;;;;;5.95;65.34;101105.19;6228582;22;45846;-83
2022/12/04 18:50:33;;;;;;;;;;;;;;;;;;;;;
2022/12/04 18:53:28;;;;;;;;;56.00;40.75;;;;;6.07;65.55;101129.84;6261013;22;44674;-86
2022/12/04 18:56:03;;;;;;;;;78.00;60.50;;;;;6.08;65.60;101128.97;6257078;22;45314;-82
2022/12/04 18:58:31;;;;;;;;;52.50;42.75;;;;;6.01;65.63;101111.41;6213758;22;45475;-82
2022/12/04 19:01:12;;;;;;;;;50.00;41.00;;;;;6.06;65.47;101130.69;6215146;22;46228;-83
2022/12/04 19:03:39;;;;;;;;;47.00;39.25;;;;;6.05;64.80;101127.19;6215500;22;45472;-83
2022/12/04 19:06:05;;;;;;;;;48.50;42.50;;;;;6.03;65.42;101128.88;6244251;22;45414;-83
2022/12/04 19:08:31;;;;;;;;;59.00;39.00;;;;;6.10;65.29;101143.84;6215567;22;45486;-83
2022/12/04 19:11:07;;;;;;;;;47.25;40.75;;;;;6.08;65.35;101134.22;6216844;22;48117;-84
2022/12/04 19:13:51;;;;;;;;;;;;;;;;;;;;;
2022/12/04 19:16:20;;;;;;;;;50.50;41.50;;;;;6.08;65.04;101136.81;6242909;22;67996;-85
2022/12/04 19:18:46;;;;;;;;;45.75;39.00;;;;;6.03;65.15;101134.09;6216069;22;45795;-84
2022/12/04 19:21:15;;;;;;;;;43.25;36.75;;;;;5.99;65.05;101124.44;6216265;22;47960;-84
2022/12/04 19:23:44;;;;;;;;;47.25;39.50;;;;;5.96;65.05;101119.13;6215513;22;45399;-84
2022/12/04 19:26:10;;;;;;;;;43.00;35.75;;;;;6.08;65.00;101144.66;6217676;22;45386;-83
2022/12/04 19:28:45;;;;;;;;;44.00;36.00;;;;;6.07;65.00;101142.91;6219753;22;45466;-85
2022/12/04 19:31:21;;;;;;;;;54.25;40.00;;;;;6.04;65.02;101134.97;6224647;22;47554;-84
2022/12/04 19:34:26;;;;;;;;;;;;;;;;;;;;;
2022/12/04 19:46:05;;;;;;;;;44.50;37.25;;;;;5.83;64.97;101146.72;6176162;23;44809;-84
2022/12/04 19:49:10;;;;;;;;;;;;;;;;;;;;;
2022/12/04 19:52:41;;;;;;;;;;;;;;;;;;;;;
2022/12/04 19:55:44;;;;;;;;;;;;;;;;;;;;;
2022/12/04 20:01:45;;;;;;;;;;;;;;;;;;;;;
2022/12/04 20:04:55;;;;;;;;;;;;;;;;;;;;;
2022/12/04 20:07:45;;;;;;;;;46.25;36.50;;;;;5.97;65.68;101186.25;6353368;22;75403;-88
2022/12/04 20:13:52;;;;;;;;;74.75;56.50;;;;;6.05;65.68;101202.09;6116388;22;44821;-87
2022/12/04 20:16:25;;;;;;;;;55.50;43.50;;;;;5.98;65.61;101198.44;6337656;22;45468;-88
2022/12/04 20:22:02;;;;;;;;;43.25;33.75;;;;;6.05;65.88;101212.56;6314197;22;45405;-86
2022/12/04 20:24:39;;;;;;;;;;;;;;;;;;;;;
2022/12/04 20:27:57;;;;;;;;;;;;;;;;;;;;;
2022/12/04 20:31:35;;;;;;;;;;;;;;;;;;;;;
2022/12/04 20:37:05;;;;;;;;;53.00;43.75;;;;;6.03;66.36;101220.34;6331382;22;45499;-85
2022/12/04 20:39:31;;;;;;;;;53.50;42.00;;;;;5.88;66.64;101199.97;6311198;22;45738;-86
2022/12/04 20:41:56;;;;;;;;;59.75;47.25;;;;;6.01;66.56;101224.66;6305137;22;46847;-86
2022/12/04 20:44:22;;;;;;;;;48.25;40.25;;;;;6.02;66.83;101231.66;6316589;22;45576;-88
2022/12/04 20:46:48;;;;;;;;;45.50;38.00;;;;;5.92;66.81;101209.63;6312737;22;45513;-87
2022/12/04 20:53:40;;;;;;;;;;;;;;;;;;;;;
2022/12/04 20:57:27;;;;;;;;;;;;;;;;;;;;;
2022/12/04 21:03:19;;;;;;;;;;;;;;;;;;;;;
2022/12/04 21:06:28;;;;;;;;;;;;;;;;;;;;;
2022/12/04 21:09:09;;;;;;;;;55.25;40.00;;;;;6.01;68.15;101237.72;6345241;22;72904;-89
2022/12/04 21:11:49;;;;;;;;;82.25;61.75;;;;;5.81;67.63;101208.50;6311341;22;45440;-88
2022/12/04 21:20:43;;;;;;;;;50.25;37.75;;;;;5.84;67.66;101233.81;6190657;22;45503;-88
2022/12/04 21:23:21;;;;;;;;;29.25;25.25;;;;;5.71;67.99;101216.97;6327519;22;44752;-88
2022/12/04 21:26:39;;;;;;;;;;;;;;;;;;;;;
2022/12/04 21:29:32;;;;;;;;;;;;;;;;;;;;;
2022/12/04 21:32:24;;;;;;;;;82.75;60.75;;;;;5.80;68.48;101243.31;6299832;22;74199;-87
2022/12/04 21:34:50;;;;;;;;;44.75;37.50;;;;;5.70;68.44;101220.44;6325523;22;45388;-89
2022/12/04 21:37:16;;;;;;;;;48.00;40.00;;;;;5.83;68.42;101253.84;6316214;22;45569;-90
2022/12/04 21:39:42;;;;;;;;;41.00;37.25;;;;;5.77;68.40;101244.97;6319547;22;47958;-87
2022/12/04 21:44:53;;;;;;;;;41.25;37.25;;;;;5.53;68.29;101218.31;6347086;22;45461;-89
2022/12/04 21:47:23;;;;;;;;;55.75;43.50;;;;;5.55;68.46;101220.06;6316131;22;45599;-91
2022/12/04 21:49:48;;;;;;;;;52.50;42.00;;;;;5.65;68.55;101237.72;6317666;22;45261;-91
2022/12/04 21:52:17;;;;;;;;;54.00;42.25;;;;;5.67;68.40;101252.59;6318733;22;45598;-89
2022/12/04 21:54:43;;;;;;;;;49.50;39.25;;;;;5.63;68.91;101255.94;6316335;22;45347;-89
2022/12/04 21:57:09;;;;;;;;;57.25;46.25;;;;;5.53;68.64;101246.13;6316674;22;45388;-89
2022/12/04 21:59:34;;;;;;;;;48.25;40.25;;;;;5.38;68.94;101228.34;6314060;22;48220;-90